Ohshima Kazumaru — JD2908 — position and weather

sailwx.info

Track history (hours):
 
Tides and Currents Weather Stations Pressure Air Temp Water Temp Dewpoint Dewpoint Depression Visibility Wind Speed Wind Dir Waves Ship Positions

Ohshima Kazumaru

Last reported at 2014-Aug-22 04:33 UTC. Time now 2014-Aug-22 05:58 UTC.
Position N 35°41' E 139°58'.

Length 69 m; draft 3.2 m.

Type: Cargo ship. MMSI: 431000925.

Date/timePositionNaut miles runAvg speedWind from/ knotsBaromVisibWave heightAir tempDewpointWater temp
2014-Aug-22 04:33N 35°41' E 139°58'0 0.0
2014-Aug-22 03:33N 35°41' E 139°58'0 0.0
2014-Aug-22 02:33N 35°41' E 139°58'0 0.0
2014-Aug-22 01:33N 35°41' E 139°58'0 0.0
2014-Aug-22 00:33N 35°41' E 139°58'0 0.0
2014-Aug-21 23:33N 35°41' E 139°58'0 0.0
2014-Aug-21 22:32N 35°41' E 139°58'4 4.1
2014-Aug-21 21:33N 35°37' E 139°59'0 0.0
2014-Aug-21 20:33N 35°37' E 139°59'0 0.0
2014-Aug-21 19:33N 35°37' E 139°59'0 0.0
2014-Aug-21 18:33N 35°37' E 139°59'0 0.0
2014-Aug-21 17:33N 35°37' E 139°59'0 0.0
2014-Aug-21 16:33N 35°37' E 139°59'6 5.6
2014-Aug-21 15:33N 35°32' E 139°54'1212.5
2014-Aug-21 14:33N 35°22' E 139°45'1211.7
2014-Aug-21 13:33N 35°11' E 139°46'1211.9
2014-Aug-21 12:33N 35°01' E 139°38'1313.1
2014-Aug-21 11:33N 34°53' E 139°25'  
2014-Aug-16 14:16N 34°48' E 139°11'2112.4
2014-Aug-16 12:33N 35°01' E 139°32'1212.0
2014-Aug-16 11:33N 35°08' E 139°43'1110.7
2014-Aug-16 10:33N 35°19' E 139°43'1111.2
2014-Aug-16 09:33N 35°29' E 139°48'2 2.3
2014-Aug-16 08:33N 35°32' E 139°47'0 0.0
2014-Aug-16 07:33N 35°32' E 139°47'0 0.0
2014-Aug-16 06:33N 35°32' E 139°47'0 0.0
2014-Aug-16 05:33N 35°32' E 139°47'0 0.0
2014-Aug-16 04:33N 35°32' E 139°47'0 0.0
2014-Aug-16 03:33N 35°32' E 139°47'0 0.0
2014-Aug-16 02:33N 35°32' E 139°47'0 0.0
2014-Aug-16 01:33N 35°32' E 139°47'0 0.0
2014-Aug-16 00:31N 35°32' E 139°47'0 0.0
2014-Aug-15 23:33N 35°32' E 139°47'0 0.0
2014-Aug-15 22:33N 35°32' E 139°47'2 2.4
2014-Aug-15 21:33N 35°31' E 139°50'0 0.0
2014-Aug-15 20:33N 35°31' E 139°50'0 0.0
2014-Aug-15 19:33N 35°31' E 139°50'0 0.0
2014-Aug-15 18:33N 35°31' E 139°50'1 0.9
2014-Aug-15 17:34N 35°30' E 139°50'1212.3
2014-Aug-15 16:33N 35°19' E 139°44'1111.4
2014-Aug-15 15:34N 35°07' E 139°46'1212.1
2014-Aug-15 14:33N 34°58' E 139°36'  
2014-Aug-12 11:07N 34°09' E 134°44'  
Track history (hours):
 
Tides and Currents Weather Stations Pressure Air Temp Water Temp Dewpoint Dewpoint Depression Visibility Wind Speed Wind Dir Waves Ship Positions

Ohshima Kazumaru

Last reported at 2014-Aug-22 04:33 UTC. Time now 2014-Aug-22 05:58 UTC.
Position N 35°41' E 139°58'.

Length 69 m; draft 3.2 m.

Type: Cargo ship. MMSI: 431000925.

Date/timePositionNaut miles runAvg speedWind from/ knotsBaromVisibWave heightAir tempDewpointWater temp
2014-Aug-22 04:33N 35°41' E 139°58'0 0.0
2014-Aug-22 03:33N 35°41' E 139°58'0 0.0
2014-Aug-22 02:33N 35°41' E 139°58'0 0.0
2014-Aug-22 01:33N 35°41' E 139°58'0 0.0
2014-Aug-22 00:33N 35°41' E 139°58'0 0.0
2014-Aug-21 23:33N 35°41' E 139°58'0 0.0
2014-Aug-21 22:32N 35°41' E 139°58'4 4.1
2014-Aug-21 21:33N 35°37' E 139°59'0 0.0
2014-Aug-21 20:33N 35°37' E 139°59'0 0.0
2014-Aug-21 19:33N 35°37' E 139°59'0 0.0
2014-Aug-21 18:33N 35°37' E 139°59'0 0.0
2014-Aug-21 17:33N 35°37' E 139°59'0 0.0
2014-Aug-21 16:33N 35°37' E 139°59'6 5.6
2014-Aug-21 15:33N 35°32' E 139°54'1212.5
2014-Aug-21 14:33N 35°22' E 139°45'1211.7
2014-Aug-21 13:33N 35°11' E 139°46'1211.9
2014-Aug-21 12:33N 35°01' E 139°38'1313.1
2014-Aug-21 11:33N 34°53' E 139°25'  
2014-Aug-16 14:16N 34°48' E 139°11'2112.4
2014-Aug-16 12:33N 35°01' E 139°32'1212.0
2014-Aug-16 11:33N 35°08' E 139°43'1110.7
2014-Aug-16 10:33N 35°19' E 139°43'1111.2
2014-Aug-16 09:33N 35°29' E 139°48'2 2.3
2014-Aug-16 08:33N 35°32' E 139°47'0 0.0
2014-Aug-16 07:33N 35°32' E 139°47'0 0.0
2014-Aug-16 06:33N 35°32' E 139°47'0 0.0
2014-Aug-16 05:33N 35°32' E 139°47'0 0.0
2014-Aug-16 04:33N 35°32' E 139°47'0 0.0
2014-Aug-16 03:33N 35°32' E 139°47'0 0.0
2014-Aug-16 02:33N 35°32' E 139°47'0 0.0
2014-Aug-16 01:33N 35°32' E 139°47'0 0.0
2014-Aug-16 00:31N 35°32' E 139°47'0 0.0
2014-Aug-15 23:33N 35°32' E 139°47'0 0.0
2014-Aug-15 22:33N 35°32' E 139°47'2 2.4
2014-Aug-15 21:33N 35°31' E 139°50'0 0.0
2014-Aug-15 20:33N 35°31' E 139°50'0 0.0
2014-Aug-15 19:33N 35°31' E 139°50'0 0.0
2014-Aug-15 18:33N 35°31' E 139°50'1 0.9
2014-Aug-15 17:34N 35°30' E 139°50'1212.3
2014-Aug-15 16:33N 35°19' E 139°44'1111.4
2014-Aug-15 15:34N 35°07' E 139°46'1212.1
2014-Aug-15 14:33N 34°58' E 139°36'  
2014-Aug-12 11:07N 34°09' E 134°44'  

Dump ship's entire track history